KHDN/HDN METAR and TAF weather

Enter ICAO airport designator
Station Type Date Time Source
KHDN METAR 2019/12/06 23:56 UTC NOAA

KHDN 062356Z AUTO 09004KT 10SM SCT041 03/M03 A3034 RMK AO2 SLP281 T00331028 10044 20011 56001


Station Type Date Time Source
KHDN Decoded METAR 2019/12/06 23:56 UTC NOAA

Hayden, Yampa Valley Airport, CO, United States (KHDN) 40-29N 107-13W
Dec 06, 2019 - 06:56 PM EST / 2019.12.06 2356 UTC
Wind: from the E (090 degrees) at 5 MPH (4 KT):0
Visibility: 10 mile(s):0
Sky conditions: partly cloudy
Temperature: 37.9 F (3.3 C)
Dew Point: 27.0 F (-2.8 C)
Relative Humidity: 64%
Pressure (altimeter): 30.34 in. Hg (1027 hPa)
Pressure tendency: 0.00 inches (0.1 hPa) lower than three hours ago
ob: KHDN 062356Z AUTO 09004KT 10SM SCT041 03/M03 A3034 RMK AO2 SLP281 T00331028 10044 20011 56001
cycle: 0

Station Type Date Time Source
KHDN TAF 2019/12/06 18:30 UTC NOAA

TAF KHDN 061728Z 0618/0718 06005KT P6SM OVC050
FM062000 VRB03KT P6SM FEW030 FEW180
FM070000 11004KT P6SM FEW050 SCT150
FM071200 10005KT P6SM BKN250

Example: see airport list